Latest Weather Observations for Point Wilson

IDV60801

Issued at 3:05 pm EST Friday 29 August 2014 (issued every 30 minutes, with the page automatically refreshed every 10 minutes)

About weather observations | Map of weather stations | Latest weather observations for VIC | Other Formats
Station Details ID: 087166 Name: POINT WILSON Lat: -38.10 Lon: 144.54 Height: 18.0 m
Data from the previous 72 hours. | See also: Recent months at Point Wilson
Date/Time
EST
Temp
°C
App
Temp
°C
Dew
Point
Rel
Hum
%
Delta-T
°C
Wind Press
QNH
hPa
Press
MSL
hPa
Rain
since 9 am
mm
Dir
 
Spd
km/h
Gust
km/h
Spd
kts
Gust
kts
29/03:00pm - - - - - ENE 13 15 7 8 - - -
29/02:30pm - - - - - ENE 17 19 9 10 - - -
29/02:00pm - - - - - NE 15 17 8 9 - - -
29/01:30pm - - - - - NE 13 15 7 8 - - -
29/01:00pm - - - - - NE 9 11 5 6 - - -
29/12:30pm - - - - - NE 9 11 5 6 - - -
29/12:00pm - - - - - NE 9 9 5 5 - - -
29/11:30am - - - - - ENE 6 9 3 5 - - -
29/11:00am - - - - - CALM 0 0 0 0 - - -
29/10:30am - - - - - CALM 0 4 0 2 - - -
29/10:00am - - - - - WNW 4 7 2 4 - - -
29/09:30am - - - - - WNW 7 11 4 6 - - -
29/09:00am - - - - - NW 11 13 6 7 - - -
29/08:30am - - - - - NW 9 11 5 6 - - -
29/08:00am - - - - - WNW 9 11 5 6 - - -
29/07:30am - - - - - W 13 17 7 9 - - -
29/07:00am - - - - - W 11 13 6 7 - - -
29/06:30am - - - - - W 11 15 6 8 - - -
29/06:00am - - - - - W 9 13 5 7 - - -
29/05:30am - - - - - WNW 6 9 3 5 - - -
29/05:00am - - - - - WNW 9 11 5 6 - - -
29/04:30am - - - - - WNW 11 13 6 7 - - -
29/04:00am - - - - - WNW 13 15 7 8 - - -
29/03:30am - - - - - WSW 11 13 6 7 - - -
29/03:00am - - - - - SW 11 13 6 7 - - -
29/02:30am - - - - - SW 13 15 7 8 - - -
29/02:00am - - - - - SW 13 17 7 9 - - -
29/01:30am - - - - - SW 13 17 7 9 - - -
29/01:00am - - - - - SW 11 13 6 7 - - -
29/12:30am - - - - - SW 13 17 7 9 - - -
29/12:00am - - - - - WSW 19 19 10 10 - - -
 
Date/Time
EST
Temp
°C
App
Temp
°C
Dew
Point
Rel
Hum
%
Delta-T
°C
Wind Press
QNH
hPa
Press
MSL
hPa
Rain
since 9 am
mm
Dir
 
Spd
km/h
Gust
km/h
Spd
kts
Gust
kts
28/11:30pm - - - - - W 13 15 7 8 - - -
28/11:00pm - - - - - WSW 7 9 4 5 - - -
28/10:30pm - - - - - S 4 7 2 4 - - -
28/10:00pm - - - - - S 7 9 4 5 - - -
28/09:30pm - - - - - SSW 13 15 7 8 - - -
28/09:00pm - - - - - SSW 15 17 8 9 - - -
28/08:30pm - - - - - SSW 13 15 7 8 - - -
28/08:00pm - - - - - SSW 15 17 8 9 - - -
28/07:30pm - - - - - SSW 19 20 10 11 - - -
28/07:00pm - - - - - SSW 19 20 10 11 - - -
28/06:30pm - - - - - SSW 19 22 10 12 - - -
28/06:00pm - - - - - ESE 4 7 2 4 - - -
28/05:30pm - - - - - E 11 13 6 7 - - -
28/05:00pm - - - - - E 13 15 7 8 - - -
28/04:30pm - - - - - E 15 17 8 9 - - -
28/04:00pm - - - - - E 17 19 9 10 - - -
28/03:30pm - - - - - ENE 17 20 9 11 - - -
28/03:00pm - - - - - ENE 15 17 8 9 - - -
28/02:30pm - - - - - E 9 13 5 7 - - -
28/02:00pm - - - - - E 11 13 6 7 - - -
28/01:30pm - - - - - ESE 7 9 4 5 - - -
28/01:00pm - - - - - SE 6 7 3 4 - - -
28/12:30pm - - - - - SE 7 9 4 5 - - -
28/12:00pm - - - - - ESE 9 11 5 6 - - -
28/11:30am - - - - - E 9 11 5 6 - - -
28/11:00am - - - - - ENE 7 9 4 5 - - -
28/10:30am - - - - - NNE 7 9 4 5 - - -
28/10:00am - - - - - NNE 9 13 5 7 - - -
28/09:30am - - - - - NE 13 15 7 8 - - -
28/09:00am - - - - - NNE 11 13 6 7 - - -
28/08:30am - - - - - N 9 11 5 6 - - -
28/08:00am - - - - - NNE 7 15 4 8 - - -
28/07:30am - - - - - NNE 9 11 5 6 - - -
28/07:00am - - - - - NNE 11 13 6 7 - - -
28/06:30am - - - - - N 13 17 7 9 - - -
28/06:00am - - - - - NNE 17 19 9 10 - - -
28/05:30am - - - - - NE 13 17 7 9 - - -
28/05:00am - - - - - NNE 11 15 6 8 - - -
28/04:30am - - - - - NE 11 15 6 8 - - -
28/04:00am - - - - - N 4 11 2 6 - - -
28/03:30am - - - - - N 6 9 3 5 - - -
28/03:00am - - - - - NNW 6 9 3 5 - - -
28/02:30am - - - - - NNW 6 9 3 5 - - -
28/02:00am - - - - - CALM 0 9 0 5 - - -
28/01:30am - - - - - N 2 6 1 3 - - -
28/01:00am - - - - - NNE 2 9 1 5 - - -
28/12:30am - - - - - NNW 2 7 1 4 - - -
28/12:00am - - - - - N 2 7 1 4 - - -
 
Date/Time
EST
Temp
°C
App
Temp
°C
Dew
Point
Rel
Hum
%
Delta-T
°C
Wind Press
QNH
hPa
Press
MSL
hPa
Rain
since 9 am
mm
Dir
 
Spd
km/h
Gust
km/h
Spd
kts
Gust
kts
27/11:30pm - - - - - WNW 6 7 3 4 - - -
27/11:00pm - - - - - NW 7 9 4 5 - - -
27/10:30pm - - - - - NW 11 13 6 7 - - -
27/10:00pm - - - - - N 11 13 6 7 - - -
27/09:30pm - - - - - SW 2 9 1 5 - - -
27/09:00pm - - - - - WSW 7 7 4 4 - - -
27/08:30pm - - - - - WSW 11 13 6 7 - - -
27/08:00pm - - - - - S 9 9 5 5 - - -
27/07:30pm - - - - - SSW 9 13 5 7 - - -
27/07:00pm - - - - - S 13 15 7 8 - - -
27/06:30pm - - - - - S 13 15 7 8 - - -
27/06:00pm - - - - - S 15 17 8 9 - - -
27/05:30pm - - - - - S 15 17 8 9 - - -
27/05:00pm - - - - - S 22 24 12 13 - - -
27/04:30pm - - - - - S 19 20 10 11 - - -
27/04:00pm - - - - - E 13 15 7 8 - - -
27/03:30pm - - - - - E 15 17 8 9 - - -
27/03:00pm - - - - - E 17 19 9 10 - - -
27/02:30pm - - - - - E 9 17 5 9 - - -
27/02:00pm - - - - - CALM 0 0 0 0 - - -
27/01:30pm - - - - - SW 7 9 4 5 - - -
27/01:00pm - - - - - SW 9 11 5 6 - - -
27/12:30pm - - - - - SSW 7 9 4 5 - - -
27/12:00pm - - - - - SSW 6 7 3 4 - - -
27/11:30am - - - - - SSW 6 7 3 4 - - -
27/11:00am - - - - - SSW 7 9 4 5 - - -
27/10:30am - - - - - SW 7 9 4 5 - - -
27/10:00am - - - - - WSW 7 9 4 5 - - -
27/09:30am - - - - - WSW 13 17 7 9 - - -
27/09:00am - - - - - W 7 11 4 6 - - -
27/08:30am - - - - - NNW 7 11 4 6 - - -
27/08:00am - - - - - NNW 9 11 5 6 - - -
27/07:30am - - - - - NW 9 13 5 7 - - -
27/07:00am - - - - - WNW 7 11 4 6 - - -
27/06:30am - - - - - NW 9 11 5 6 - - -
27/06:00am - - - - - W 9 11 5 6 - - -
27/05:30am - - - - - NNW 9 13 5 7 - - -
27/05:00am - - - - - NNW 11 13 6 7 - - -
27/04:30am - - - - - NNW 9 13 5 7 - - -
27/04:00am - - - - - W 9 13 5 7 - - -
27/03:30am - - - - - W 11 15 6 8 - - -
27/03:00am - - - - - W 9 13 5 7 - - -
27/02:30am - - - - - WSW 17 20 9 11 - - -
27/02:00am - - - - - WSW 13 17 7 9 - - -
27/01:30am - - - - - WNW 11 15 6 8 - - -
27/01:00am - - - - - W 13 17 7 9 - - -
27/12:30am - - - - - W 15 17 8 9 - - -
27/12:00am - - - - - W 19 20 10 11 - - -
 
Date/Time
EST
Temp
°C
App
Temp
°C
Dew
Point
Rel
Hum
%
Delta-T
°C
Wind Press
QNH
hPa
Press
MSL
hPa
Rain
since 9 am
mm
Dir
 
Spd
km/h
Gust
km/h
Spd
kts
Gust
kts
26/11:30pm - - - - - W 13 15 7 8 - - -
26/11:00pm - - - - - WNW 11 15 6 8 - - -
26/10:30pm - - - - - W 15 17 8 9 - - -
26/10:00pm - - - - - W 15 17 8 9 - - -
26/09:30pm - - - - - WSW 9 13 5 7 - - -
26/09:00pm - - - - - W 7 7 4 4 - - -
26/08:30pm - - - - - W 9 11 5 6 - - -
26/08:00pm - - - - - W 11 13 6 7 - - -
26/07:30pm - - - - - SW 4 9 2 5 - - -
26/07:00pm - - - - - S 11 13 6 7 - - -
26/06:30pm - - - - - S 17 19 9 10 - - -
26/06:00pm - - - - - S 19 20 10 11 - - -
26/05:30pm - - - - - S 19 20 10 11 - - -
26/05:00pm - - - - - S 22 24 12 13 - - -
26/04:30pm - - - - - S 20 22 11 12 - - -
26/04:00pm - - - - - SSW 20 24 11 13 - - -
26/03:30pm - - - - - S 17 20 9 11 - - -

Other Formats:

Comma delimited format used in spreadsheet applications
http://www.bom.gov.au/fwo/IDV60801/IDV60801.94847.axf

JavaScript Object Notation format (JSON) in row-major order
http://www.bom.gov.au/fwo/IDV60801/IDV60801.94847.json